createdAt,value
2017-12-16T02:45:42.921Z,3.03
2017-12-16T02:48:14.893Z,2.89
2017-12-16T02:50:48.143Z,2.76
2017-12-16T02:53:24.473Z,2.65
2017-12-16T02:55:59.708Z,2.46
2017-12-16T02:58:34.408Z,2.41
2017-12-16T03:01:06.955Z,2.31
2017-12-16T03:03:38.646Z,2.23
2017-12-16T03:06:10.930Z,2.15
2017-12-16T03:08:42.603Z,2.09
2017-12-16T03:11:15.106Z,2.26
2017-12-16T03:13:47.616Z,2.45
2017-12-16T03:16:20.187Z,2.56
2017-12-16T03:18:55.938Z,2.74
2017-12-16T03:21:28.016Z,2.87
2017-12-16T03:24:00.768Z,2.92
2017-12-16T03:26:32.318Z,2.87
2017-12-16T03:29:04.139Z,2.89
2017-12-16T03:31:36.087Z,2.76
2017-12-16T03:34:08.205Z,2.68
2017-12-16T03:36:39.851Z,2.62
2017-12-16T03:39:11.516Z,2.64
2017-12-16T03:41:43.160Z,2.53
2017-12-16T03:44:15.153Z,2.50
2017-12-16T03:46:47.456Z,2.34
2017-12-16T03:49:19.245Z,2.33
2017-12-16T03:51:50.710Z,2.35
2017-12-16T03:54:22.415Z,2.36
2017-12-16T03:56:53.641Z,2.23
2017-12-16T03:59:25.950Z,2.34
2017-12-16T04:01:57.037Z,2.30
2017-12-16T04:04:28.849Z,2.23
2017-12-16T04:07:00.143Z,2.25
2017-12-16T04:09:31.834Z,2.26
2017-12-16T04:12:12.492Z,2.23
2017-12-16T04:14:44.608Z,2.14
2017-12-16T04:17:16.448Z,2.10
2017-12-16T04:19:48.300Z,2.21
2017-12-16T04:22:19.904Z,2.11
2017-12-16T04:24:51.601Z,2.17
2017-12-16T04:27:22.701Z,2.17
2017-12-16T04:29:54.294Z,2.28
2017-12-16T04:32:25.456Z,2.32
2017-12-16T04:34:58.420Z,2.31
2017-12-16T04:37:30.243Z,2.42
2017-12-16T04:40:02.095Z,2.39
2017-12-16T04:42:34.177Z,2.44
2017-12-16T04:45:06.247Z,2.45
2017-12-16T04:47:37.592Z,2.75
2017-12-16T04:50:10.652Z,2.78
2017-12-16T04:52:41.852Z,2.81
2017-12-16T04:55:14.599Z,2.87
2017-12-16T04:57:46.581Z,2.99
2017-12-16T05:00:18.011Z,2.92
2017-12-16T05:02:49.308Z,2.94
2017-12-16T05:05:21.786Z,2.84
2017-12-16T05:07:53.963Z,2.93
2017-12-16T05:10:25.273Z,3.06
2017-12-16T05:12:57.178Z,3.17
2017-12-16T05:15:28.464Z,3.16
2017-12-16T05:18:00.492Z,3.16
2017-12-16T05:20:32.310Z,3.29
2017-12-16T05:23:03.814Z,3.29
2017-12-16T05:25:35.499Z,3.22
2017-12-16T05:28:07.024Z,3.18
2017-12-16T05:30:39.068Z,3.26
2017-12-16T05:33:10.172Z,3.19
2017-12-16T05:35:41.898Z,3.19
2017-12-16T05:38:13.912Z,3.03
2017-12-16T05:40:45.414Z,2.91
2017-12-16T05:43:17.284Z,2.94
2017-12-16T05:45:48.844Z,2.92
2017-12-16T05:48:20.315Z,2.69
2017-12-16T05:50:52.104Z,2.65
2017-12-16T05:53:23.445Z,2.73
2017-12-16T05:55:55.116Z,2.84
2017-12-16T05:58:27.045Z,2.86
2017-12-16T06:00:58.770Z,2.96
2017-12-16T06:03:32.177Z,3.04
2017-12-16T06:06:06.203Z,2.97
2017-12-16T06:08:40.547Z,2.98
2017-12-16T06:11:11.915Z,3.03
2017-12-16T06:13:44.893Z,3.05
2017-12-16T06:16:16.524Z,2.99
2017-12-16T06:18:49.335Z,2.97
2017-12-16T06:21:21.246Z,3.07
2017-12-16T06:23:53.132Z,3.07
2017-12-16T06:26:24.911Z,3.11
2017-12-16T06:28:56.339Z,3.17
2017-12-16T06:31:29.061Z,3.12
2017-12-16T06:34:01.202Z,3.19
2017-12-16T06:36:35.930Z,3.14
2017-12-16T06:39:07.943Z,3.19
2017-12-16T06:41:39.237Z,3.05
2017-12-16T06:44:10.565Z,2.97
2017-12-16T06:46:42.520Z,2.89
2017-12-16T06:49:15.557Z,2.95
2017-12-16T06:51:47.093Z,2.82
2017-12-16T06:54:18.567Z,2.99
2017-12-16T06:56:49.858Z,2.95
2017-12-16T06:59:22.804Z,2.95
2017-12-16T07:01:54.070Z,2.99
2017-12-16T07:04:25.854Z,3.03
2017-12-16T07:06:57.220Z,3.03
2017-12-16T07:09:30.170Z,3.10
2017-12-16T07:12:01.457Z,3.25
2017-12-16T07:14:34.421Z,3.25
2017-12-16T07:17:06.772Z,3.12
2017-12-16T07:19:38.582Z,3.16
2017-12-16T07:22:10.861Z,3.14
2017-12-16T07:24:43.656Z,3.12
2017-12-16T07:27:15.851Z,3.12
2017-12-16T07:29:48.814Z,3.23
2017-12-16T07:32:20.086Z,3.22
2017-12-16T07:34:51.541Z,3.27
2017-12-16T07:37:22.684Z,3.23
2017-12-16T07:39:54.273Z,3.23
2017-12-16T07:42:25.318Z,3.29
2017-12-16T07:44:56.834Z,3.33
2017-12-16T07:47:28.430Z,3.31
2017-12-16T07:50:00.334Z,3.28
2017-12-16T07:52:32.436Z,3.31
2017-12-16T07:55:06.266Z,3.36
2017-12-16T07:57:38.250Z,3.31
2017-12-16T08:00:10.259Z,3.44
2017-12-16T08:02:41.854Z,3.44
2017-12-16T08:05:13.381Z,3.39
2017-12-16T08:07:45.363Z,3.28
2017-12-16T08:10:16.683Z,3.20
2017-12-16T08:12:48.191Z,3.36
2017-12-16T08:15:19.730Z,3.30
2017-12-16T08:17:55.645Z,3.35
2017-12-16T08:20:30.066Z,3.48
2017-12-16T08:23:05.580Z,3.62
2017-12-16T08:25:40.890Z,3.72
2017-12-16T08:28:14.269Z,3.74
2017-12-16T08:30:50.136Z,3.70
2017-12-16T08:33:22.415Z,3.75
2017-12-16T08:35:54.850Z,3.86
2017-12-16T08:38:29.779Z,3.87
2017-12-16T08:41:02.339Z,3.99
2017-12-16T08:43:36.191Z,4.06
2017-12-16T08:46:07.918Z,4.07
2017-12-16T08:48:42.411Z,4.17
2017-12-16T08:51:14.042Z,4.15
2017-12-16T08:53:45.530Z,4.16
2017-12-16T08:56:19.360Z,4.23
2017-12-16T08:58:56.360Z,4.33
2017-12-16T09:01:29.861Z,4.28
2017-12-16T09:04:01.890Z,4.18
2017-12-16T09:06:34.776Z,4.16
2017-12-16T09:09:13.002Z,4.04
2017-12-16T09:11:45.525Z,4.01
2017-12-16T09:14:17.673Z,3.98
2017-12-16T09:16:51.481Z,3.86
2017-12-16T09:19:27.052Z,3.84
2017-12-16T09:22:04.902Z,3.95
2017-12-16T09:24:38.687Z,4.11
2017-12-16T09:27:12.053Z,4.37
2017-12-16T09:29:46.767Z,4.57
2017-12-16T09:32:18.833Z,4.80
2017-12-16T09:34:50.675Z,5.05
2017-12-16T09:37:22.617Z,5.28
2017-12-16T09:39:53.828Z,5.49
2017-12-16T09:42:28.887Z,5.62
2017-12-16T09:45:02.586Z,5.53
2017-12-16T09:47:34.572Z,5.60
2017-12-16T09:50:07.987Z,5.59
2017-12-16T09:52:41.541Z,5.61
2017-12-16T09:55:15.710Z,5.58
2017-12-16T09:57:48.295Z,5.57
2017-12-16T10:00:23.303Z,5.53
2017-12-16T10:02:55.967Z,5.57
2017-12-16T10:05:34.227Z,5.60
2017-12-16T10:08:10.021Z,5.63
2017-12-16T10:10:42.569Z,5.50
2017-12-16T10:13:15.678Z,5.50
2017-12-16T10:15:52.608Z,5.49
2017-12-16T10:18:29.607Z,5.45
2017-12-16T10:21:06.165Z,5.36
2017-12-16T10:23:43.228Z,5.24
2017-12-16T10:26:16.262Z,5.29
2017-12-16T10:28:48.807Z,5.23
2017-12-16T10:31:22.397Z,5.35
2017-12-16T10:34:00.991Z,5.43
2017-12-16T10:36:33.843Z,5.36
2017-12-16T10:39:10.925Z,5.33
2017-12-16T10:41:54.466Z,5.25
2017-12-16T10:44:39.615Z,5.15
2017-12-16T10:47:17.567Z,5.04
2017-12-16T10:50:07.938Z,4.98
2017-12-16T10:52:41.407Z,5.04
2017-12-16T10:55:24.301Z,4.83
2017-12-16T10:58:09.527Z,4.87
2017-12-16T11:00:50.636Z,4.85
2017-12-16T11:03:29.395Z,4.91
2017-12-16T11:06:06.698Z,5.06
2017-12-16T11:08:43.644Z,5.18
2017-12-16T11:11:26.737Z,5.47
2017-12-16T11:14:00.715Z,5.56
2017-12-16T11:16:32.738Z,5.67
2017-12-16T11:19:06.675Z,5.65
2017-12-16T11:21:38.731Z,5.62
2017-12-16T11:24:11.597Z,5.60
2017-12-16T11:26:56.293Z,5.66
2017-12-16T11:29:32.977Z,5.91
2017-12-16T11:32:10.631Z,5.84
2017-12-16T11:34:47.487Z,5.89
2017-12-16T11:37:20.411Z,5.95
2017-12-16T11:40:03.238Z,6.04
2017-12-16T11:42:50.123Z,6.06
2017-12-16T11:45:31.236Z,6.06
2017-12-16T11:48:09.480Z,6.02
2017-12-16T11:50:50.984Z,5.92
2017-12-16T11:53:28.752Z,5.99
2017-12-16T11:56:03.561Z,6.00
2017-12-16T11:58:37.439Z,5.95
2017-12-16T12:01:13.191Z,5.96
2017-12-16T12:03:45.645Z,5.92
2017-12-16T12:06:19.214Z,5.84
2017-12-16T12:08:52.071Z,5.89
2017-12-16T12:11:28.520Z,5.76
2017-12-16T12:14:00.510Z,5.75
2017-12-16T12:16:32.847Z,5.83
2017-12-16T12:19:06.420Z,6.04
2017-12-16T12:21:42.475Z,5.92
2017-12-16T12:24:19.640Z,6.05
2017-12-16T12:29:43.447Z,6.23
2017-12-16T12:32:18.254Z,6.22
2017-12-16T12:34:59.017Z,6.17
2017-12-16T12:37:38.013Z,6.01
2017-12-16T12:40:14.977Z,5.85
2017-12-16T12:42:49.136Z,5.82
2017-12-16T12:45:24.450Z,5.90
2017-12-16T12:47:59.718Z,5.89
2017-12-16T12:50:40.453Z,5.94
2017-12-16T12:53:18.540Z,5.83
2017-12-16T12:55:55.689Z,5.83
2017-12-16T12:58:39.421Z,5.83
2017-12-16T13:01:19.444Z,5.90
2017-12-16T13:03:59.234Z,5.85
2017-12-16T13:06:41.390Z,5.90
2017-12-16T13:09:19.495Z,5.98
2017-12-16T13:12:04.233Z,6.13
2017-12-16T13:14:47.251Z,6.05
2017-12-16T13:17:23.129Z,6.32
2017-12-16T13:22:45.634Z,6.58
2017-12-16T13:25:19.508Z,6.58
2017-12-16T13:27:56.302Z,6.60
2017-12-16T13:30:31.357Z,6.64
2017-12-16T13:33:08.522Z,6.68
2017-12-16T13:35:42.790Z,6.54
2017-12-16T13:38:25.478Z,6.44
2017-12-16T13:41:11.544Z,6.38
2017-12-16T13:43:44.131Z,6.53
2017-12-16T13:46:16.899Z,6.51
2017-12-16T13:48:54.151Z,6.47
2017-12-16T13:51:33.363Z,6.45
2017-12-16T13:54:11.482Z,6.39
2017-12-16T13:56:49.854Z,6.29
2017-12-16T13:59:23.830Z,6.24
2017-12-16T14:01:57.689Z,6.04
2017-12-16T14:04:37.853Z,6.12
2017-12-16T14:07:12.760Z,6.10
2017-12-16T14:09:50.039Z,6.07
2017-12-16T14:12:23.172Z,6.07
2017-12-16T14:17:51.785Z,6.16
2017-12-16T14:20:29.321Z,6.04
2017-12-16T14:23:05.924Z,5.94
2017-12-16T14:25:49.628Z,5.86
2017-12-16T14:28:31.952Z,5.91
2017-12-16T14:31:08.132Z,5.75
2017-12-16T14:33:44.992Z,5.79
2017-12-16T14:36:24.295Z,5.76
2017-12-16T14:39:01.743Z,5.79
2017-12-16T14:41:43.424Z,5.68
2017-12-16T14:44:22.583Z,5.75
2017-12-16T14:47:06.602Z,5.61
2017-12-16T14:49:47.762Z,5.79
2017-12-16T14:52:22.140Z,5.74
2017-12-16T14:54:59.104Z,5.68
2017-12-16T14:57:43.728Z,5.74
2017-12-16T15:00:21.691Z,5.68
2017-12-16T15:03:04.785Z,5.69
2017-12-16T15:05:47.470Z,5.70
2017-12-16T15:08:24.480Z,5.66
2017-12-16T15:11:05.412Z,5.65
2017-12-16T15:13:41.836Z,5.58
2017-12-16T15:16:16.626Z,5.57
2017-12-16T15:18:51.521Z,5.55
2017-12-16T15:21:32.465Z,5.57
2017-12-16T15:24:08.053Z,5.44
2017-12-16T15:26:44.236Z,5.34
2017-12-16T15:29:20.161Z,5.39
2017-12-16T15:31:56.864Z,5.32
2017-12-16T15:34:31.218Z,5.32
2017-12-16T15:37:05.804Z,5.32
2017-12-16T15:39:43.025Z,5.34
2017-12-16T15:42:15.446Z,5.31
2017-12-16T15:44:51.849Z,5.27
2017-12-16T15:47:26.453Z,5.19
2017-12-16T15:50:11.892Z,5.25
2017-12-16T15:52:44.844Z,5.25
2017-12-16T15:55:17.510Z,5.22
2017-12-16T15:57:51.488Z,5.14
2017-12-16T16:00:24.027Z,5.00
2017-12-16T16:02:58.456Z,5.08
2017-12-16T16:05:32.292Z,5.08
2017-12-16T16:08:08.850Z,5.14
2017-12-16T16:13:14.424Z,5.02
2017-12-16T16:15:48.641Z,4.99
2017-12-16T16:18:25.320Z,4.94
2017-12-16T16:21:03.266Z,5.03
2017-12-16T16:23:40.078Z,5.04
2017-12-16T16:26:15.832Z,4.97
2017-12-16T16:28:59.872Z,5.03
2017-12-16T16:31:39.627Z,4.98
2017-12-16T16:34:17.483Z,5.18
2017-12-16T16:36:54.408Z,5.12
2017-12-16T16:39:32.643Z,5.21
2017-12-16T16:42:05.734Z,5.11
2017-12-16T16:44:41.359Z,4.89
2017-12-16T16:47:17.523Z,4.63
2017-12-16T16:49:49.808Z,4.50
2017-12-16T16:52:23.239Z,4.26
2017-12-16T16:54:56.820Z,4.21
2017-12-16T16:57:29.932Z,4.21
2017-12-16T17:00:03.651Z,4.12
2017-12-16T17:02:36.890Z,3.99
2017-12-16T17:05:13.804Z,3.94
2017-12-16T17:07:47.311Z,4.00
2017-12-16T17:10:22.448Z,3.91
2017-12-16T17:12:54.904Z,3.98
2017-12-16T17:15:29.561Z,4.00
2017-12-16T17:18:04.896Z,3.98
2017-12-16T17:20:36.626Z,4.04
2017-12-16T17:23:11.346Z,4.04
2017-12-16T17:25:44.656Z,4.05
2017-12-16T17:28:18.208Z,4.14
2017-12-16T17:30:52.100Z,4.13
2017-12-16T17:33:29.935Z,4.19
2017-12-16T17:36:01.622Z,4.21
2017-12-16T17:38:36.483Z,4.28
2017-12-16T17:41:10.944Z,4.26
2017-12-16T17:43:49.135Z,4.34
2017-12-16T17:46:21.275Z,4.29
2017-12-16T17:48:56.612Z,4.37
2017-12-16T17:51:29.282Z,4.34
2017-12-16T17:54:02.757Z,4.35
2017-12-16T17:56:38.332Z,4.44
2017-12-16T17:59:10.339Z,4.48
2017-12-16T18:01:42.054Z,4.41
2017-12-16T18:04:15.047Z,4.37
2017-12-16T18:06:47.676Z,4.41
2017-12-16T18:09:22.484Z,4.41
2017-12-16T18:11:58.972Z,4.48
2017-12-16T18:14:32.240Z,4.31
2017-12-16T18:17:06.933Z,4.28
2017-12-16T18:19:38.473Z,4.14
2017-12-16T18:22:11.551Z,4.16
2017-12-16T18:24:43.461Z,4.14
2017-12-16T18:27:16.996Z,4.26
2017-12-16T18:29:50.268Z,4.31
2017-12-16T18:32:23.239Z,4.36
2017-12-16T18:34:57.586Z,4.38
2017-12-16T18:37:30.600Z,4.41
2017-12-16T18:40:15.408Z,4.40
2017-12-16T18:42:48.396Z,4.38
2017-12-16T18:45:26.433Z,4.43
2017-12-16T18:47:59.202Z,4.44
2017-12-16T18:50:32.812Z,4.44
2017-12-16T18:53:06.766Z,4.42
2017-12-16T18:55:40.995Z,4.39
2017-12-16T18:58:12.659Z,4.42
2017-12-16T19:00:49.979Z,4.49
2017-12-16T19:03:28.590Z,4.50
2017-12-16T19:06:01.093Z,4.51
2017-12-16T19:08:34.215Z,4.51
2017-12-16T19:11:08.522Z,4.57
2017-12-16T19:13:43.834Z,4.65
2017-12-16T19:16:23.649Z,4.70
2017-12-16T19:18:59.078Z,4.71
2017-12-16T19:21:43.251Z,4.69
2017-12-16T19:24:25.981Z,4.65
2017-12-16T19:27:07.788Z,4.68
2017-12-16T19:29:51.355Z,4.60
2017-12-16T19:32:30.769Z,4.53
2017-12-16T19:35:09.422Z,4.57
2017-12-16T19:37:44.888Z,4.40
2017-12-16T19:40:19.980Z,4.30
2017-12-16T19:42:57.398Z,4.26
2017-12-16T19:45:39.628Z,4.07
2017-12-16T19:48:14.986Z,4.06
2017-12-16T19:50:52.624Z,4.02
2017-12-16T19:53:31.129Z,4.06
2017-12-16T19:56:11.660Z,4.00
2017-12-16T20:01:33.268Z,4.07
2017-12-16T20:04:14.432Z,4.01
2017-12-16T20:07:01.563Z,3.95
2017-12-16T20:09:37.366Z,3.96
2017-12-16T20:12:14.128Z,3.98
2017-12-16T20:14:50.201Z,4.07
2017-12-16T20:17:24.393Z,4.17
2017-12-16T20:19:56.428Z,4.19
2017-12-16T20:22:28.885Z,4.04
2017-12-16T20:25:04.339Z,4.00
2017-12-16T20:27:38.996Z,4.13
2017-12-16T20:30:17.654Z,4.19
2017-12-16T20:32:59.764Z,4.04
2017-12-16T20:35:32.834Z,4.15
2017-12-16T20:38:07.635Z,4.13
2017-12-16T20:40:43.024Z,4.18
2017-12-16T20:43:18.420Z,4.26
2017-12-16T20:45:55.773Z,4.35
2017-12-16T20:48:31.063Z,4.30
2017-12-16T20:51:05.501Z,4.43
2017-12-16T20:53:38.502Z,4.39
2017-12-16T20:56:18.000Z,4.50
2017-12-16T20:58:56.705Z,4.47
2017-12-16T21:01:30.933Z,4.58
2017-12-16T21:04:03.295Z,4.55
2017-12-16T21:06:38.323Z,4.53
2017-12-16T21:09:12.113Z,4.57
2017-12-16T21:11:47.153Z,4.51
2017-12-16T21:14:23.551Z,4.60
2017-12-16T21:17:07.483Z,4.53
2017-12-16T21:19:46.003Z,4.61
2017-12-16T21:22:24.804Z,4.50
2017-12-16T21:27:42.035Z,4.50
2017-12-16T21:30:22.478Z,4.55
2017-12-16T21:32:58.694Z,4.47
2017-12-16T21:35:39.990Z,4.50
2017-12-16T21:38:15.592Z,4.45
2017-12-16T21:40:49.359Z,4.47
2017-12-16T21:43:25.843Z,4.49
2017-12-16T21:45:59.447Z,4.46
2017-12-16T21:48:35.423Z,4.49
2017-12-16T21:51:11.911Z,4.48
2017-12-16T21:53:52.490Z,4.50
2017-12-16T21:56:28.467Z,4.49
2017-12-16T21:59:07.964Z,4.52
2017-12-16T22:01:46.828Z,4.49
2017-12-16T22:04:20.312Z,4.45
2017-12-16T22:06:52.964Z,4.47
2017-12-16T22:09:34.851Z,4.26
2017-12-16T22:12:17.927Z,4.51
2017-12-16T22:14:59.149Z,4.52
2017-12-16T22:20:27.732Z,4.52
2017-12-16T22:23:06.532Z,4.53
2017-12-16T22:25:41.266Z,4.61
2017-12-16T22:28:22.717Z,4.58
2017-12-16T22:31:00.237Z,4.50
2017-12-16T22:33:35.884Z,4.63
2017-12-16T22:36:10.502Z,4.64
2017-12-16T22:38:44.243Z,4.66
2017-12-16T22:41:24.335Z,4.67
2017-12-16T22:46:48.914Z,4.84
2017-12-16T22:52:16.639Z,4.68
2017-12-16T22:55:01.090Z,4.63
2017-12-16T22:57:35.321Z,4.69
2017-12-16T23:00:50.072Z,4.72
2017-12-16T23:03:27.545Z,4.73
2017-12-16T23:06:01.369Z,4.58
2017-12-16T23:08:35.505Z,4.55
2017-12-16T23:11:18.874Z,4.55
2017-12-16T23:14:05.616Z,4.65
2017-12-16T23:16:43.455Z,4.73
2017-12-16T23:19:15.984Z,4.71
2017-12-16T23:21:58.000Z,4.67
2017-12-16T23:24:31.489Z,4.66
2017-12-16T23:27:04.303Z,4.65
2017-12-16T23:29:39.523Z,4.69
2017-12-16T23:32:12.757Z,4.71
2017-12-16T23:34:47.120Z,4.72
2017-12-16T23:37:24.988Z,4.80
2017-12-16T23:39:59.212Z,4.71
2017-12-16T23:42:35.187Z,4.72
2017-12-16T23:45:12.446Z,4.66
2017-12-16T23:47:48.228Z,4.76
2017-12-16T23:50:22.122Z,4.73
2017-12-16T23:52:55.570Z,4.68
2017-12-16T23:55:27.683Z,4.67
2017-12-16T23:57:59.709Z,4.69
